Roatan, Honduras

12:44 PM CST on December 02, 2016 (GMT -0600)
Roatan - West Bay Beach | | Change Station

Elev 0 ft 16.28 °N, 86.60 °W | Updated 27 seconds ago

Scattered Clouds
Scattered Clouds
87.6 °F
Feels Like 95 °F
N
2.0
Wind Variable Wind from SSW

Today
High -- | Low -- °F
--% Chance of Precip.
Yesterday
High -- | Low -- °F
Precip. -- in
Pressure 29.95 in
Visibility 6.2 miles
Clouds Scattered Clouds 2000 ft
Heat Index 95 °F
Dew Point 72 °F
Humidity 61%
Rainfall 0.00 in
Snow Depth Not available.
5:59 AM 5:12 PM
Waxing Crescent, 10% visible
METAR MHRO 021800Z 09015KT 9999 SCT020 31/24 Q1014 A2995 NOSIG
Pressure 29.95 in
Visibility 6.2 miles
Clouds Scattered Clouds 2000 ft
Heat Index 95 °F
Dew Point 72 °F
Humidity 61%
Rainfall 0.00 in
Snow Depth Not available.
5:59 AM 5:12 PM
Waxing Crescent, 10% visible
METAR MHRO 021800Z 09015KT 9999 SCT020 31/24 Q1014 A2995 NOSIG

10-Day Weather Forecast

No radar image for this location.
×

Almanac

Astronomy

Dec. 02, 2016 Rise Set
Actual Time
Civil Twilight
Nautical Twilight
Astronomical Twilight
Moon
Length of Visible Light
Length of Day
Tomorrow will be .
, % of the Moon is Illuminated

Today's Extremes

Country Highs Country Lows

Community

WunderPhotos

Upload Photos

1,955,342 photos uploaded!

WunderBlog® & News

Nearby

Air Quality

  Air Quality AQ Index Pollutant
Not available.

Snow Depth

Station Depth Elevation

Earthquake Activity

City Distance Mag. Time & Date
Minimum magnitude displayed is 2.5.

Coastal Water Temperatures

Place Temperature

Stations

Nearby Weather Stations

Station Location Temp. Windchill Dew Point Humidity Wind Precip. Elev Updated Type